sensor_id;sensor_type;location;lat;lon;timestamp;pressure;altitude;pressure_sealevel;temperature;humidity
9538;BME280;4807;48.024;11.726;2024-02-15T00:02:04;95482.59;;;8.23;71.66
9538;BME280;4807;48.024;11.726;2024-02-15T00:05:13;95485.94;;;8.17;71.86
9538;BME280;4807;48.024;11.726;2024-02-15T00:08:23;95494.25;;;8.14;72.22
9538;BME280;4807;48.024;11.726;2024-02-15T00:11:34;95490.09;;;8.11;73.19
9538;BME280;4807;48.024;11.726;2024-02-15T00:14:42;95489.97;;;8.04;72.99
9538;BME280;4807;48.024;11.726;2024-02-15T00:17:52;95488.97;;;8.05;73.45
9538;BME280;4807;48.024;11.726;2024-02-15T00:21:00;95494.44;;;8.04;73.27
9538;BME280;4807;48.024;11.726;2024-02-15T00:24:09;95490.66;;;7.98;73.46
9538;BME280;4807;48.024;11.726;2024-02-15T00:27:17;95489.97;;;8.04;73.75
9538;BME280;4807;48.024;11.726;2024-02-15T00:30:26;95479.72;;;8.01;73.95
9538;BME280;4807;48.024;11.726;2024-02-15T00:33:36;95478.19;;;8.07;72.96
9538;BME280;4807;48.024;11.726;2024-02-15T00:36:45;95483.38;;;8.00;73.41
9538;BME280;4807;48.024;11.726;2024-02-15T00:39:54;95478.25;;;7.91;73.69
9538;BME280;4807;48.024;11.726;2024-02-15T00:43:03;95481.78;;;7.83;73.72
9538;BME280;4807;48.024;11.726;2024-02-15T00:46:11;95481.94;;;7.82;74.51
9538;BME280;4807;48.024;11.726;2024-02-15T00:49:21;95481.13;;;7.73;74.55
9538;BME280;4807;48.024;11.726;2024-02-15T00:52:30;95476.50;;;7.75;74.17
9538;BME280;4807;48.024;11.726;2024-02-15T00:55:38;95483.78;;;7.73;74.12
9538;BME280;4807;48.024;11.726;2024-02-15T00:58:47;95486.78;;;7.78;74.40
9538;BME280;4807;48.024;11.726;2024-02-15T01:01:55;95483.63;;;7.75;74.85
9538;BME280;4807;48.024;11.726;2024-02-15T01:05:06;95488.09;;;7.74;74.31
9538;BME280;4807;48.024;11.726;2024-02-15T01:08:14;95485.78;;;7.63;75.57
9538;BME280;4807;48.024;11.726;2024-02-15T01:11:22;95482.81;;;7.66;74.91
9538;BME280;4807;48.024;11.726;2024-02-15T01:14:31;95489.47;;;7.62;75.35
9538;BME280;4807;48.024;11.726;2024-02-15T01:17:39;95488.81;;;7.60;75.58
9538;BME280;4807;48.024;11.726;2024-02-15T01:20:49;95487.16;;;7.59;75.43
9538;BME280;4807;48.024;11.726;2024-02-15T01:23:59;95489.28;;;7.55;75.54
9538;BME280;4807;48.024;11.726;2024-02-15T01:27:09;95486.16;;;7.60;75.33
9538;BME280;4807;48.024;11.726;2024-02-15T01:30:17;95482.84;;;7.58;75.65
9538;BME280;4807;48.024;11.726;2024-02-15T01:33:26;95489.47;;;7.62;75.52
9538;BME280;4807;48.024;11.726;2024-02-15T01:36:37;95483.81;;;7.65;75.09
9538;BME280;4807;48.024;11.726;2024-02-15T01:39:46;95486.16;;;7.60;75.28
9538;BME280;4807;48.024;11.726;2024-02-15T01:42:54;95478.69;;;7.55;75.42
9538;BME280;4807;48.024;11.726;2024-02-15T01:46:09;95478.56;;;7.41;76.07
9538;BME280;4807;48.024;11.726;2024-02-15T01:49:18;95479.41;;;7.25;77.04
9538;BME280;4807;48.024;11.726;2024-02-15T01:52:28;95479.25;;;7.18;77.42
9538;BME280;4807;48.024;11.726;2024-02-15T01:55:38;95472.44;;;7.32;76.97
9538;BME280;4807;48.024;11.726;2024-02-15T01:58:47;95466.50;;;7.22;76.77
9538;BME280;4807;48.024;11.726;2024-02-15T02:01:56;95466.03;;;7.18;76.62
9538;BME280;4807;48.024;11.726;2024-02-15T02:05:06;95460.56;;;7.12;76.94
9538;BME280;4807;48.024;11.726;2024-02-15T02:08:16;95455.13;;;7.05;77.66
9538;BME280;4807;48.024;11.726;2024-02-15T02:11:25;95457.78;;;7.05;77.04
9538;BME280;4807;48.024;11.726;2024-02-15T02:14:36;95454.78;;;7.00;77.42
9538;BME280;4807;48.024;11.726;2024-02-15T02:17:48;95449.81;;;7.21;76.67
9538;BME280;4807;48.024;11.726;2024-02-15T02:20:58;95459.34;;;7.47;75.49
9538;BME280;4807;48.024;11.726;2024-02-15T02:24:13;95461.00;;;7.40;76.00
9538;BME280;4807;48.024;11.726;2024-02-15T02:27:25;95454.25;;;7.29;76.68
9538;BME280;4807;48.024;11.726;2024-02-15T02:30:35;95447.63;;;7.33;77.03
9538;BME280;4807;48.024;11.726;2024-02-15T02:33:51;95439.00;;;7.31;76.84
9538;BME280;4807;48.024;11.726;2024-02-15T02:37:00;95448.44;;;7.34;77.38
9538;BME280;4807;48.024;11.726;2024-02-15T02:40:12;95453.03;;;7.48;76.39
9538;BME280;4807;48.024;11.726;2024-02-15T02:43:22;95449.38;;;7.57;75.48
9538;BME280;4807;48.024;11.726;2024-02-15T02:46:30;95448.94;;;7.37;76.61
9538;BME280;4807;48.024;11.726;2024-02-15T02:49:38;95443.50;;;7.22;78.09
9538;BME280;4807;48.024;11.726;2024-02-15T02:52:47;95447.19;;;7.13;78.03
9538;BME280;4807;48.024;11.726;2024-02-15T02:55:56;95455.75;;;7.15;78.55
9538;BME280;4807;48.024;11.726;2024-02-15T02:59:06;95449.13;;;7.27;77.92
9538;BME280;4807;48.024;11.726;2024-02-15T03:02:15;95443.84;;;7.27;77.88
9538;BME280;4807;48.024;11.726;2024-02-15T03:05:23;95445.81;;;7.25;77.89
9538;BME280;4807;48.024;11.726;2024-02-15T03:08:31;95442.84;;;7.28;78.31
9538;BME280;4807;48.024;11.726;2024-02-15T03:11:41;95434.53;;;7.32;78.05
9538;BME280;4807;48.024;11.726;2024-02-15T03:14:51;95437.00;;;7.41;77.78
9538;BME280;4807;48.024;11.726;2024-02-15T03:17:59;95438.53;;;7.36;77.25
9538;BME280;4807;48.024;11.726;2024-02-15T03:21:14;95439.53;;;7.26;77.22
9538;BME280;4807;48.024;11.726;2024-02-15T03:24:23;95437.56;;;7.20;77.65
9538;BME280;4807;48.024;11.726;2024-02-15T03:27:31;95444.81;;;7.26;77.23
9538;BME280;4807;48.024;11.726;2024-02-15T03:30:42;95443.50;;;7.14;77.92
9538;BME280;4807;48.024;11.726;2024-02-15T03:33:50;95444.16;;;7.24;76.72
9538;BME280;4807;48.024;11.726;2024-02-15T03:37:01;95454.78;;;7.08;78.38
9538;BME280;4807;48.024;11.726;2024-02-15T03:40:11;95450.44;;;7.32;77.32
9538;BME280;4807;48.024;11.726;2024-02-15T03:43:21;95451.63;;;7.13;77.99
9538;BME280;4807;48.024;11.726;2024-02-15T03:46:31;95453.47;;;7.04;78.47
9538;BME280;4807;48.024;11.726;2024-02-15T03:49:40;95456.94;;;7.13;77.93
9538;BME280;4807;48.024;11.726;2024-02-15T03:52:49;95450.97;;;7.11;78.25
9538;BME280;4807;48.024;11.726;2024-02-15T03:55:58;95453.44;;;7.20;78.15
9538;BME280;4807;48.024;11.726;2024-02-15T03:59:07;95451.13;;;7.09;78.39
9538;BME280;4807;48.024;11.726;2024-02-15T04:02:17;95454.09;;;7.22;78.03
9538;BME280;4807;48.024;11.726;2024-02-15T04:05:25;95456.72;;;7.22;77.89
9538;BME280;4807;48.024;11.726;2024-02-15T04:08:33;95450.47;;;7.15;77.90
9538;BME280;4807;48.024;11.726;2024-02-15T04:11:43;95446.50;;;7.03;78.30
9538;BME280;4807;48.024;11.726;2024-02-15T04:14:54;95444.84;;;7.02;79.05
9538;BME280;4807;48.024;11.726;2024-02-15T04:18:08;95443.50;;;7.14;77.54
9538;BME280;4807;48.024;11.726;2024-02-15T04:21:18;95449.50;;;6.92;78.51
9538;BME280;4807;48.024;11.726;2024-02-15T04:24:27;95451.31;;;7.00;78.88
9538;BME280;4807;48.024;11.726;2024-02-15T04:27:35;95460.75;;;6.86;79.55
9538;BME280;4807;48.024;11.726;2024-02-15T04:30:43;95457.09;;;6.79;79.54
9538;BME280;4807;48.024;11.726;2024-02-15T04:33:55;95453.63;;;6.70;79.81
9538;BME280;4807;48.024;11.726;2024-02-15T04:37:05;95461.41;;;6.64;80.09
9538;BME280;4807;48.024;11.726;2024-02-15T04:40:14;95461.91;;;6.83;79.33
9538;BME280;4807;48.024;11.726;2024-02-15T04:43:25;95463.38;;;6.70;80.21
9538;BME280;4807;48.024;11.726;2024-02-15T04:46:34;95457.25;;;6.61;79.97
9538;BME280;4807;48.024;11.726;2024-02-15T04:49:43;95463.72;;;6.75;79.69
9538;BME280;4807;48.024;11.726;2024-02-15T04:52:52;95468.66;;;6.62;80.16
9538;BME280;4807;48.024;11.726;2024-02-15T04:56:00;95466.69;;;6.64;80.10
9538;BME280;4807;48.024;11.726;2024-02-15T04:59:13;95462.41;;;6.79;79.70
9538;BME280;4807;48.024;11.726;2024-02-15T05:02:23;95465.38;;;6.68;80.07
9538;BME280;4807;48.024;11.726;2024-02-15T05:05:33;95453.94;;;6.75;80.40
9538;BME280;4807;48.024;11.726;2024-02-15T05:08:42;95453.94;;;6.75;79.39
9538;BME280;4807;48.024;11.726;2024-02-15T05:11:50;95458.91;;;6.70;79.91
9538;BME280;4807;48.024;11.726;2024-02-15T05:15:00;95449.81;;;6.57;79.82
9538;BME280;4807;48.024;11.726;2024-02-15T05:18:08;95441.88;;;6.48;79.93
9538;BME280;4807;48.024;11.726;2024-02-15T05:21:18;95448.16;;;6.39;80.56
9538;BME280;4807;48.024;11.726;2024-02-15T05:24:27;95452.09;;;6.35;80.52
9538;BME280;4807;48.024;11.726;2024-02-15T05:27:36;95446.13;;;6.25;81.17
9538;BME280;4807;48.024;11.726;2024-02-15T05:30:45;95447.13;;;6.16;81.62
9538;BME280;4807;48.024;11.726;2024-02-15T05:33:54;95438.50;;;6.14;81.52
9538;BME280;4807;48.024;11.726;2024-02-15T05:37:05;95442.13;;;6.05;81.71
9538;BME280;4807;48.024;11.726;2024-02-15T05:40:14;95450.69;;;5.99;82.09
9538;BME280;4807;48.024;11.726;2024-02-15T05:43:23;95448.19;;;5.89;82.48
9538;BME280;4807;48.024;11.726;2024-02-15T05:46:32;95452.88;;;5.78;82.80
9538;BME280;4807;48.024;11.726;2024-02-15T05:49:44;95449.91;;;5.72;83.09
9538;BME280;4807;48.024;11.726;2024-02-15T05:52:56;95445.19;;;5.50;83.49
9538;BME280;4807;48.024;11.726;2024-02-15T05:56:07;95443.75;;;5.30;84.43
9538;BME280;4807;48.024;11.726;2024-02-15T05:59:17;95451.25;;;5.43;84.20
9538;BME280;4807;48.024;11.726;2024-02-15T06:02:27;95443.63;;;5.40;84.11
9538;BME280;4807;48.024;11.726;2024-02-15T06:05:36;95441.25;;;5.28;84.05
9538;BME280;4807;48.024;11.726;2024-02-15T06:08:47;95448.56;;;5.09;85.14
9538;BME280;4807;48.024;11.726;2024-02-15T06:11:56;95448.03;;;5.05;85.43
9538;BME280;4807;48.024;11.726;2024-02-15T06:15:06;95450.22;;;5.10;85.67
9538;BME280;4807;48.024;11.726;2024-02-15T06:18:23;95450.88;;;5.12;85.56
9538;BME280;4807;48.024;11.726;2024-02-15T06:21:33;95441.97;;;5.13;85.52
9538;BME280;4807;48.024;11.726;2024-02-15T06:24:43;95455.59;;;5.00;85.22
9538;BME280;4807;48.024;11.726;2024-02-15T06:27:51;95451.50;;;5.06;85.04
9538;BME280;4807;48.024;11.726;2024-02-15T06:31:06;95458.25;;;5.00;85.33
9538;BME280;4807;48.024;11.726;2024-02-15T06:34:32;95461.88;;;4.99;85.31
9538;BME280;4807;48.024;11.726;2024-02-15T06:37:58;95466.66;;;5.04;85.51
9538;BME280;4807;48.024;11.726;2024-02-15T06:41:26;95462.59;;;5.35;83.65
9538;BME280;4807;48.024;11.726;2024-02-15T06:44:35;95467.59;;;5.46;83.63
9538;BME280;4807;48.024;11.726;2024-02-15T06:47:44;95471.81;;;5.65;83.23
9538;BME280;4807;48.024;11.726;2024-02-15T06:50:52;95474.53;;;5.81;82.34
9538;BME280;4807;48.024;11.726;2024-02-15T06:54:01;95463.72;;;6.00;82.49
9538;BME280;4807;48.024;11.726;2024-02-15T06:57:11;95465.91;;;6.05;82.22
9538;BME280;4807;48.024;11.726;2024-02-15T07:00:20;95465.97;;;6.29;81.54
9538;BME280;4807;48.024;11.726;2024-02-15T07:03:29;95468.97;;;6.42;80.37
9538;BME280;4807;48.024;11.726;2024-02-15T07:06:40;95467.31;;;6.58;80.03
9538;BME280;4807;48.024;11.726;2024-02-15T07:09:52;95469.66;;;6.77;78.17
9538;BME280;4807;48.024;11.726;2024-02-15T07:13:02;95473.31;;;7.00;77.54
9538;BME280;4807;48.024;11.726;2024-02-15T07:16:11;95475.25;;;7.39;76.91
9538;BME280;4807;48.024;11.726;2024-02-15T07:19:20;95470.88;;;7.78;75.21
9538;BME280;4807;48.024;11.726;2024-02-15T07:22:30;95472.31;;;7.81;73.99
9538;BME280;4807;48.024;11.726;2024-02-15T07:25:40;95465.28;;;8.04;73.66
9538;BME280;4807;48.024;11.726;2024-02-15T07:28:50;95470.66;;;7.88;72.79
9538;BME280;4807;48.024;11.726;2024-02-15T07:32:01;95471.50;;;7.80;73.98
9538;BME280;4807;48.024;11.726;2024-02-15T07:35:11;95468.81;;;7.88;74.01
9538;BME280;4807;48.024;11.726;2024-02-15T07:38:21;95464.34;;;7.89;73.86
9538;BME280;4807;48.024;11.726;2024-02-15T07:41:30;95459.91;;;7.81;73.80
9538;BME280;4807;48.024;11.726;2024-02-15T07:44:42;95464.88;;;7.84;73.74
9538;BME280;4807;48.024;11.726;2024-02-15T07:47:50;95456.56;;;7.87;73.65
9538;BME280;4807;48.024;11.726;2024-02-15T07:50:58;95459.34;;;8.02;73.59
9538;BME280;4807;48.024;11.726;2024-02-15T07:54:07;95450.47;;;8.18;72.89
9538;BME280;4807;48.024;11.726;2024-02-15T07:57:16;95453.09;;;8.26;72.60
9538;BME280;4807;48.024;11.726;2024-02-15T08:00:25;95455.38;;;8.29;71.98
9538;BME280;4807;48.024;11.726;2024-02-15T08:03:35;95446.41;;;8.30;72.56
9538;BME280;4807;48.024;11.726;2024-02-15T08:06:43;95446.72;;;8.43;72.07
9538;BME280;4807;48.024;11.726;2024-02-15T08:09:52;95455.19;;;8.61;71.09
9538;BME280;4807;48.024;11.726;2024-02-15T08:13:01;95445.53;;;8.68;70.94
9538;BME280;4807;48.024;11.726;2024-02-15T08:16:11;95439.53;;;8.74;71.82
9538;BME280;4807;48.024;11.726;2024-02-15T08:19:23;95435.13;;;9.04;70.45
9538;BME280;4807;48.024;11.726;2024-02-15T08:22:32;95431.91;;;9.32;69.64
9538;BME280;4807;48.024;11.726;2024-02-15T08:25:40;95433.09;;;9.58;68.43
9538;BME280;4807;48.024;11.726;2024-02-15T08:28:48;95427.59;;;9.75;68.21
9538;BME280;4807;48.024;11.726;2024-02-15T08:31:58;95421.81;;;9.86;68.02
9538;BME280;4807;48.024;11.726;2024-02-15T08:35:09;95416.56;;;10.07;67.68
9538;BME280;4807;48.024;11.726;2024-02-15T08:38:19;95414.91;;;10.06;66.98
9538;BME280;4807;48.024;11.726;2024-02-15T08:41:27;95412.94;;;10.15;66.67
9538;BME280;4807;48.024;11.726;2024-02-15T08:44:36;95406.63;;;10.16;67.10
9538;BME280;4807;48.024;11.726;2024-02-15T08:47:46;95405.50;;;10.40;65.69
9538;BME280;4807;48.024;11.726;2024-02-15T08:50:57;95412.22;;;10.57;65.92
9538;BME280;4807;48.024;11.726;2024-02-15T08:54:05;95411.22;;;10.79;64.31
9538;BME280;4807;48.024;11.726;2024-02-15T08:57:14;95418.25;;;11.08;64.10
9538;BME280;4807;48.024;11.726;2024-02-15T09:00:23;95407.13;;;11.26;64.69
9538;BME280;4807;48.024;11.726;2024-02-15T09:03:35;95405.44;;;11.53;62.71
9538;BME280;4807;48.024;11.726;2024-02-15T09:06:44;95400.75;;;11.55;61.98
9538;BME280;4807;48.024;11.726;2024-02-15T09:09:53;95401.84;;;11.67;61.21
9538;BME280;4807;48.024;11.726;2024-02-15T09:13:02;95404.56;;;11.73;62.44
9538;BME280;4807;48.024;11.726;2024-02-15T09:16:11;95399.56;;;11.92;60.92
9538;BME280;4807;48.024;11.726;2024-02-15T09:19:21;95392.81;;;12.02;61.18
9538;BME280;4807;48.024;11.726;2024-02-15T09:22:32;95398.63;;;12.19;60.48
9538;BME280;4807;48.024;11.726;2024-02-15T09:25:42;95399.91;;;12.30;60.35
9538;BME280;4807;48.024;11.726;2024-02-15T09:28:51;95389.69;;;12.46;60.16
9538;BME280;4807;48.024;11.726;2024-02-15T09:32:00;95391.75;;;12.57;59.00
9538;BME280;4807;48.024;11.726;2024-02-15T09:35:11;95384.81;;;12.76;58.99
9538;BME280;4807;48.024;11.726;2024-02-15T09:38:21;95380.28;;;12.70;60.13
9538;BME280;4807;48.024;11.726;2024-02-15T09:41:29;95374.56;;;12.80;59.29
9538;BME280;4807;48.024;11.726;2024-02-15T09:44:38;95382.53;;;12.67;60.38
9538;BME280;4807;48.024;11.726;2024-02-15T09:47:48;95375.34;;;12.60;60.79
9538;BME280;4807;48.024;11.726;2024-02-15T09:50:59;95378.25;;;12.85;59.40
9538;BME280;4807;48.024;11.726;2024-02-15T09:54:10;95373.53;;;12.94;59.71
9538;BME280;4807;48.024;11.726;2024-02-15T09:57:20;95369.19;;;13.06;58.45
9538;BME280;4807;48.024;11.726;2024-02-15T10:00:29;95370.06;;;13.13;58.45
9538;BME280;4807;48.024;11.726;2024-02-15T10:03:41;95356.06;;;13.24;57.92
9538;BME280;4807;48.024;11.726;2024-02-15T10:06:51;95356.06;;;13.31;57.85
9538;BME280;4807;48.024;11.726;2024-02-15T10:10:15;95346.19;;;13.45;57.56
9538;BME280;4807;48.024;11.726;2024-02-15T10:13:24;95344.31;;;13.52;56.75
9538;BME280;4807;48.024;11.726;2024-02-15T10:16:32;95339.16;;;13.50;57.72
9538;BME280;4807;48.024;11.726;2024-02-15T10:20:02;95335.22;;;13.59;58.09
9538;BME280;4807;48.024;11.726;2024-02-15T10:23:15;95340.31;;;13.74;57.66
9538;BME280;4807;48.024;11.726;2024-02-15T10:26:26;95338.66;;;13.86;59.10
9538;BME280;4807;48.024;11.726;2024-02-15T10:29:36;95334.88;;;14.00;58.97
9538;BME280;4807;48.024;11.726;2024-02-15T10:32:49;95332.00;;;14.02;57.96
9538;BME280;4807;48.024;11.726;2024-02-15T10:36:09;95330.72;;;14.04;58.59
9538;BME280;4807;48.024;11.726;2024-02-15T10:39:23;95324.97;;;14.07;56.95
9538;BME280;4807;48.024;11.726;2024-02-15T10:42:33;95323.69;;;14.17;55.73
9538;BME280;4807;48.024;11.726;2024-02-15T10:45:43;95317.31;;;14.11;56.05
9538;BME280;4807;48.024;11.726;2024-02-15T10:48:52;95309.66;;;14.21;56.48
9538;BME280;4807;48.024;11.726;2024-02-15T10:52:03;95310.63;;;14.33;55.83
9538;BME280;4807;48.024;11.726;2024-02-15T10:55:22;95308.97;;;14.32;56.44
9538;BME280;4807;48.024;11.726;2024-02-15T10:58:33;95297.69;;;14.24;56.63
9538;BME280;4807;48.024;11.726;2024-02-15T11:01:50;95293.88;;;14.44;55.42
9538;BME280;4807;48.024;11.726;2024-02-15T11:05:06;95285.19;;;14.49;55.00
9538;BME280;4807;48.024;11.726;2024-02-15T11:08:18;95278.09;;;14.61;56.26
9538;BME280;4807;48.024;11.726;2024-02-15T11:11:29;95275.16;;;14.69;56.38
9538;BME280;4807;48.024;11.726;2024-02-15T11:14:44;95270.59;;;14.70;56.08
9538;BME280;4807;48.024;11.726;2024-02-15T11:17:52;95267.28;;;14.74;56.01
9538;BME280;4807;48.024;11.726;2024-02-15T11:21:04;95264.59;;;14.74;55.28
9538;BME280;4807;48.024;11.726;2024-02-15T11:24:28;95257.16;;;14.76;54.65
9538;BME280;4807;48.024;11.726;2024-02-15T11:27:38;95255.34;;;14.70;54.68
9538;BME280;4807;48.024;11.726;2024-02-15T11:30:48;95247.50;;;14.75;54.79
9538;BME280;4807;48.024;11.726;2024-02-15T11:33:56;95246.00;;;14.79;54.10
9538;BME280;4807;48.024;11.726;2024-02-15T11:37:05;95241.25;;;14.81;55.86
9538;BME280;4807;48.024;11.726;2024-02-15T11:40:14;95228.75;;;14.94;55.19
9538;BME280;4807;48.024;11.726;2024-02-15T11:43:51;95237.41;;;14.96;55.04
9538;BME280;4807;48.024;11.726;2024-02-15T11:47:07;95232.66;;;15.16;53.66
9538;BME280;4807;48.024;11.726;2024-02-15T11:50:19;95232.06;;;15.14;54.08
9538;BME280;4807;48.024;11.726;2024-02-15T11:53:28;95218.88;;;15.12;53.08
9538;BME280;4807;48.024;11.726;2024-02-15T11:56:53;95217.97;;;15.18;52.66
9538;BME280;4807;48.024;11.726;2024-02-15T12:00:24;95211.50;;;15.26;53.57
9538;BME280;4807;48.024;11.726;2024-02-15T12:03:53;95204.06;;;15.28;52.91
9538;BME280;4807;48.024;11.726;2024-02-15T12:07:18;95205.25;;;15.32;52.51
9538;BME280;4807;48.024;11.726;2024-02-15T12:10:56;95192.06;;;15.12;53.21
9538;BME280;4807;48.024;11.726;2024-02-15T12:14:23;95194.63;;;15.01;52.20
9538;BME280;4807;48.024;11.726;2024-02-15T12:17:51;95185.72;;;15.07;53.25
9538;BME280;4807;48.024;11.726;2024-02-15T12:21:20;95183.63;;;15.09;52.45
9538;BME280;4807;48.024;11.726;2024-02-15T12:24:30;95171.88;;;14.92;52.24
9538;BME280;4807;48.024;11.726;2024-02-15T12:27:38;95177.66;;;14.88;52.84
9538;BME280;4807;48.024;11.726;2024-02-15T12:30:55;95179.31;;;14.89;52.78
9538;BME280;4807;48.024;11.726;2024-02-15T12:34:06;95171.56;;;14.81;52.97
9538;BME280;4807;48.024;11.726;2024-02-15T12:37:18;95155.91;;;14.78;52.26
9538;BME280;4807;48.024;11.726;2024-02-15T12:40:31;95161.19;;;14.85;53.77
9538;BME280;4807;48.024;11.726;2024-02-15T12:43:41;95160.00;;;14.81;52.83
9538;BME280;4807;48.024;11.726;2024-02-15T12:46:54;95162.38;;;14.71;53.39
9538;BME280;4807;48.024;11.726;2024-02-15T12:50:15;95161.19;;;14.67;53.13
9538;BME280;4807;48.024;11.726;2024-02-15T12:53:24;95156.78;;;14.72;53.62
9538;BME280;4807;48.024;11.726;2024-02-15T12:56:33;95159.25;;;14.74;53.14
9538;BME280;4807;48.024;11.726;2024-02-15T12:59:43;95146.97;;;14.84;53.29
9538;BME280;4807;48.024;11.726;2024-02-15T13:02:51;95150.09;;;14.81;52.13
9538;BME280;4807;48.024;11.726;2024-02-15T13:06:01;95144.38;;;14.96;52.90
9538;BME280;4807;48.024;11.726;2024-02-15T13:09:10;95134.09;;;15.30;51.98
9538;BME280;4807;48.024;11.726;2024-02-15T13:12:20;95133.91;;;15.61;51.02
9538;BME280;4807;48.024;11.726;2024-02-15T13:15:30;95124.44;;;15.58;51.38
9538;BME280;4807;48.024;11.726;2024-02-15T13:18:41;95124.66;;;15.57;49.77
9538;BME280;4807;48.024;11.726;2024-02-15T13:21:52;95118.31;;;15.51;50.08
9538;BME280;4807;48.024;11.726;2024-02-15T13:25:06;95118.78;;;15.48;50.31
9538;BME280;4807;48.024;11.726;2024-02-15T13:28:16;95111.31;;;15.50;50.36
9538;BME280;4807;48.024;11.726;2024-02-15T13:31:25;95112.22;;;15.44;49.47
9538;BME280;4807;48.024;11.726;2024-02-15T13:34:34;95108.38;;;15.40;49.72
9538;BME280;4807;48.024;11.726;2024-02-15T13:37:47;95108.81;;;15.55;50.63
9538;BME280;4807;48.024;11.726;2024-02-15T13:40:57;95102.41;;;15.56;50.43
9538;BME280;4807;48.024;11.726;2024-02-15T13:44:10;95094.69;;;15.60;49.66
9538;BME280;4807;48.024;11.726;2024-02-15T13:47:18;95097.66;;;15.52;49.41
9538;BME280;4807;48.024;11.726;2024-02-15T13:50:29;95093.56;;;15.68;49.55
9538;BME280;4807;48.024;11.726;2024-02-15T13:53:40;95089.72;;;15.75;49.18
9538;BME280;4807;48.024;11.726;2024-02-15T13:56:50;95091.84;;;15.85;48.44
9538;BME280;4807;48.024;11.726;2024-02-15T13:59:58;95091.75;;;15.91;48.03
9538;BME280;4807;48.024;11.726;2024-02-15T14:03:07;95086.25;;;15.86;48.31
9538;BME280;4807;48.024;11.726;2024-02-15T14:06:18;95094.03;;;15.76;48.09
9538;BME280;4807;48.024;11.726;2024-02-15T14:09:28;95086.59;;;15.48;48.79
9538;BME280;4807;48.024;11.726;2024-02-15T14:12:38;95085.59;;;15.43;49.43
9538;BME280;4807;48.024;11.726;2024-02-15T14:15:46;95090.16;;;15.42;49.50
9538;BME280;4807;48.024;11.726;2024-02-15T14:18:55;95086.31;;;15.38;48.90
9538;BME280;4807;48.024;11.726;2024-02-15T14:22:04;95083.72;;;15.32;49.81
9538;BME280;4807;48.024;11.726;2024-02-15T14:25:18;95089.75;;;15.27;50.06
9538;BME280;4807;48.024;11.726;2024-02-15T14:28:26;95085.72;;;15.18;49.74
9538;BME280;4807;48.024;11.726;2024-02-15T14:31:36;95080.97;;;15.20;49.49
9538;BME280;4807;48.024;11.726;2024-02-15T14:35:03;95081.19;;;15.18;50.56
9538;BME280;4807;48.024;11.726;2024-02-15T14:38:13;95083.66;;;15.20;48.96
9538;BME280;4807;48.024;11.726;2024-02-15T14:41:24;95081.91;;;15.25;50.44
9538;BME280;4807;48.024;11.726;2024-02-15T14:44:36;95081.47;;;15.28;49.85
9538;BME280;4807;48.024;11.726;2024-02-15T14:47:46;95081.09;;;15.25;50.99
9538;BME280;4807;48.024;11.726;2024-02-15T14:50:56;95081.09;;;15.25;51.52
9538;BME280;4807;48.024;11.726;2024-02-15T14:54:05;95077.47;;;15.19;51.93
9538;BME280;4807;48.024;11.726;2024-02-15T14:57:15;95080.97;;;15.20;51.98
9538;BME280;4807;48.024;11.726;2024-02-15T15:00:28;95082.53;;;15.09;52.70
9538;BME280;4807;48.024;11.726;2024-02-15T15:03:53;95087.13;;;14.91;53.67
9538;BME280;4807;48.024;11.726;2024-02-15T15:07:05;95082.06;;;14.82;54.52
9538;BME280;4807;48.024;11.726;2024-02-15T15:10:31;95086.59;;;14.82;53.88
9538;BME280;4807;48.024;11.726;2024-02-15T15:13:59;95082.41;;;14.68;54.82
9538;BME280;4807;48.024;11.726;2024-02-15T15:17:07;95080.69;;;14.55;54.26
9538;BME280;4807;48.024;11.726;2024-02-15T15:20:17;95082.34;;;14.56;54.18
9538;BME280;4807;48.024;11.726;2024-02-15T15:23:27;95077.13;;;14.43;54.83
9538;BME280;4807;48.024;11.726;2024-02-15T15:26:38;95077.19;;;14.30;55.31
9538;BME280;4807;48.024;11.726;2024-02-15T15:29:50;95073.16;;;14.21;55.98
9538;BME280;4807;48.024;11.726;2024-02-15T15:32:58;95077.16;;;14.11;56.05
9538;BME280;4807;48.024;11.726;2024-02-15T15:36:07;95083.78;;;13.84;57.92
9538;BME280;4807;48.024;11.726;2024-02-15T15:39:15;95069.78;;;13.82;58.23
9538;BME280;4807;48.024;11.726;2024-02-15T15:42:24;95076.09;;;13.63;58.39
9538;BME280;4807;48.024;11.726;2024-02-15T15:45:36;95075.00;;;13.46;59.60
9538;BME280;4807;48.024;11.726;2024-02-15T15:48:44;95072.22;;;13.27;60.10
9538;BME280;4807;48.024;11.726;2024-02-15T15:51:53;95072.28;;;13.14;61.40
9538;BME280;4807;48.024;11.726;2024-02-15T15:55:01;95063.69;;;12.99;61.68
9538;BME280;4807;48.024;11.726;2024-02-15T15:58:09;95066.66;;;12.78;62.69
9538;BME280;4807;48.024;11.726;2024-02-15T16:01:19;95065.91;;;12.64;62.47
9538;BME280;4807;48.024;11.726;2024-02-15T16:04:29;95058.31;;;12.54;63.19
9538;BME280;4807;48.024;11.726;2024-02-15T16:07:37;95048.28;;;12.43;63.59
9538;BME280;4807;48.024;11.726;2024-02-15T16:10:47;95060.19;;;12.41;63.97
9538;BME280;4807;48.024;11.726;2024-02-15T16:13:56;95059.41;;;12.20;64.74
9538;BME280;4807;48.024;11.726;2024-02-15T16:17:06;95045.91;;;11.96;65.72
9538;BME280;4807;48.024;11.726;2024-02-15T16:20:16;95050.44;;;11.75;65.93
9538;BME280;4807;48.024;11.726;2024-02-15T16:23:25;95057.97;;;11.52;67.11
9538;BME280;4807;48.024;11.726;2024-02-15T16:26:34;95051.16;;;11.30;67.22
9538;BME280;4807;48.024;11.726;2024-02-15T16:29:43;95060.38;;;11.14;68.25
9538;BME280;4807;48.024;11.726;2024-02-15T16:32:53;95055.59;;;10.96;69.14
9538;BME280;4807;48.024;11.726;2024-02-15T16:36:02;95066.41;;;10.75;69.35
9538;BME280;4807;48.024;11.726;2024-02-15T16:39:11;95058.31;;;10.55;71.33
9538;BME280;4807;48.024;11.726;2024-02-15T16:42:22;95060.28;;;10.40;72.11
9538;BME280;4807;48.024;11.726;2024-02-15T16:45:30;95069.66;;;10.29;71.97
9538;BME280;4807;48.024;11.726;2024-02-15T16:48:41;95069.13;;;10.13;72.66
9538;BME280;4807;48.024;11.726;2024-02-15T16:51:50;95068.59;;;9.96;73.25
9538;BME280;4807;48.024;11.726;2024-02-15T16:54:58;95065.22;;;9.81;73.92
9538;BME280;4807;48.024;11.726;2024-02-15T16:58:07;95073.47;;;9.65;74.64
9538;BME280;4807;48.024;11.726;2024-02-15T17:01:17;95069.22;;;9.49;75.31
9538;BME280;4807;48.024;11.726;2024-02-15T17:04:27;95072.22;;;9.39;76.21
9538;BME280;4807;48.024;11.726;2024-02-15T17:07:36;95077.41;;;9.26;77.11
9538;BME280;4807;48.024;11.726;2024-02-15T17:10:44;95071.13;;;9.12;77.49
9538;BME280;4807;48.024;11.726;2024-02-15T17:13:52;95077.16;;;9.00;77.65